createdAt,value
2022-11-03T00:04:36.357Z,0
2022-11-03T00:10:59.430Z,0
2022-11-03T00:17:19.381Z,0
2022-11-03T00:23:42.397Z,0
2022-11-03T00:30:02.430Z,0
2022-11-03T00:36:25.378Z,0
2022-11-03T00:42:45.481Z,0
2022-11-03T00:49:08.417Z,0
2022-11-03T00:55:28.460Z,0
2022-11-03T01:01:51.461Z,0
2022-11-03T01:08:11.324Z,0
2022-11-03T01:14:34.414Z,0
2022-11-03T01:20:54.347Z,0
2022-11-03T01:27:17.449Z,0
2022-11-03T01:33:37.413Z,0
2022-11-03T01:40:00.411Z,0
2022-11-03T01:46:20.358Z,0
2022-11-03T01:52:43.407Z,0
2022-11-03T01:59:03.413Z,0
2022-11-03T02:05:26.358Z,0
2022-11-03T02:11:46.409Z,0
2022-11-03T02:18:09.342Z,0
2022-11-03T02:24:29.407Z,0
2022-11-03T02:30:52.374Z,0
2022-11-03T02:37:12.401Z,0
2022-11-03T02:43:35.426Z,0
2022-11-03T02:56:18.420Z,0
2022-11-03T03:02:38.365Z,0
2022-11-03T03:09:01.427Z,0
2022-11-03T03:15:21.408Z,0
2022-11-03T03:21:44.368Z,0
2022-11-03T03:28:04.381Z,0
2022-11-03T03:34:35.922Z,0
2022-11-03T03:40:47.412Z,0
2022-11-03T03:47:10.408Z,0
2022-11-03T03:53:30.375Z,0
2022-11-03T03:59:53.342Z,0
2022-11-03T04:06:13.382Z,0
2022-11-03T04:12:36.357Z,0
2022-11-03T04:36:45.311Z,0
2022-11-03T04:43:05.613Z,0
2022-11-03T04:49:28.366Z,0
2022-11-03T04:55:48.359Z,0
2022-11-03T05:02:11.332Z,0
2022-11-03T05:08:31.398Z,0
2022-11-03T05:14:58.205Z,0
2022-11-03T05:21:14.466Z,0
2022-11-03T05:27:37.372Z,0
2022-11-03T05:33:57.381Z,0
2022-11-03T05:40:20.393Z,0
2022-11-03T05:46:40.366Z,0
2022-11-03T05:53:03.408Z,0
2022-11-03T05:59:23.395Z,1
2022-11-03T06:05:46.344Z,2
2022-11-03T06:12:06.416Z,7
2022-11-03T06:18:29.342Z,18
2022-11-03T06:24:49.382Z,32
2022-11-03T06:31:12.379Z,52
2022-11-03T06:37:32.352Z,79
2022-11-03T06:43:55.389Z,123
2022-11-03T06:50:15.381Z,178
2022-11-03T06:56:38.441Z,247
2022-11-03T07:02:58.378Z,270
2022-11-03T07:09:21.618Z,274
2022-11-03T07:15:41.606Z,316
2022-11-03T07:22:04.387Z,387
2022-11-03T07:28:24.404Z,504
2022-11-03T07:34:47.390Z,704
2022-11-03T07:41:07.374Z,978
2022-11-03T07:47:30.535Z,1212
2022-11-03T07:53:50.365Z,1281
2022-11-03T08:00:13.715Z,1407
2022-11-03T08:06:33.399Z,1506
2022-11-03T08:12:56.389Z,1279
2022-11-03T08:19:16.388Z,1132
2022-11-03T08:25:39.400Z,1250
2022-11-03T08:31:59.453Z,1378
2022-11-03T08:38:22.361Z,1506
2022-11-03T08:44:42.407Z,1630
2022-11-03T08:51:05.395Z,1773
2022-11-03T08:57:25.349Z,1851
2022-11-03T09:03:48.479Z,1880
2022-11-03T09:10:26.290Z,1992
2022-11-03T09:16:31.412Z,2196
2022-11-03T09:22:51.385Z,2069
2022-11-03T09:29:14.366Z,2225
2022-11-03T09:52:36.895Z,2081
2022-11-03T09:58:56.320Z,2116
2022-11-03T10:05:19.377Z,2290
2022-11-03T10:11:39.395Z,2315
2022-11-03T10:18:02.330Z,2012
2022-11-03T10:24:22.371Z,2007
2022-11-03T10:30:57.917Z,1940
2022-11-03T10:37:05.412Z,1901
2022-11-03T10:43:28.382Z,2161
2022-11-03T10:49:48.402Z,2120
2022-11-03T10:56:11.465Z,1854
2022-11-03T11:02:31.481Z,1563
2022-11-03T11:08:58.858Z,1541
2022-11-03T11:15:14.390Z,1488
2022-11-03T11:21:37.356Z,1573
2022-11-03T11:27:58.556Z,1699
2022-11-03T11:34:20.346Z,1579
2022-11-03T11:40:40.388Z,1796
2022-11-03T11:47:03.436Z,1418
2022-11-03T11:53:27.587Z,1016
2022-11-03T11:59:46.443Z,820
2022-11-03T12:06:06.368Z,873
2022-11-03T12:12:29.464Z,629
2022-11-03T12:18:50.603Z,1105
2022-11-03T12:25:12.397Z,1102
2022-11-03T12:31:33.127Z,1280
2022-11-03T12:37:55.382Z,1087
2022-11-03T12:44:15.931Z,880
2022-11-03T12:50:38.373Z,811
2022-11-03T12:56:58.397Z,748
2022-11-03T13:03:21.555Z,749
2022-11-03T13:09:41.467Z,741
2022-11-03T13:16:04.591Z,673
2022-11-03T13:22:24.385Z,604
2022-11-03T13:28:47.366Z,692
2022-11-03T13:35:12.477Z,715
2022-11-03T13:41:30.380Z,792
2022-11-03T13:48:22.369Z,756
2022-11-03T14:00:33.393Z,495
2022-11-03T14:06:56.411Z,425
2022-11-03T14:13:16.346Z,316
2022-11-03T14:19:43.913Z,334
2022-11-03T14:26:06.176Z,296
2022-11-03T14:32:22.466Z,226
2022-11-03T14:38:45.076Z,267
2022-11-03T14:45:05.437Z,271
2022-11-03T15:01:31.436Z,152
2022-11-03T15:07:51.294Z,65
2022-11-03T15:14:14.320Z,33
2022-11-03T15:20:34.371Z,61
2022-11-03T15:26:57.378Z,40
2022-11-03T15:33:17.505Z,27
2022-11-03T15:39:40.397Z,24
2022-11-03T15:46:00.555Z,18
2022-11-03T15:52:23.480Z,12
2022-11-03T15:58:43.401Z,12
2022-11-03T16:05:06.559Z,7
2022-11-03T16:11:26.674Z,3
2022-11-03T16:17:49.484Z,2
2022-11-03T16:24:09.439Z,1
2022-11-03T16:30:32.361Z,1
2022-11-03T16:36:52.429Z,0
2022-11-03T16:43:15.355Z,0
2022-11-03T16:49:35.439Z,0
2022-11-03T16:55:58.380Z,0
2022-11-03T17:02:18.393Z,0
2022-11-03T17:08:56.694Z,0
2022-11-03T17:15:01.426Z,0
2022-11-03T17:21:24.378Z,0
2022-11-03T17:27:44.398Z,0
2022-11-03T17:34:07.361Z,0
2022-11-03T17:40:27.397Z,0
2022-11-03T17:46:50.357Z,0
2022-11-03T17:53:10.480Z,0
2022-11-03T17:59:33.340Z,0
2022-11-03T18:05:53.356Z,0
2022-11-03T18:12:16.436Z,0
2022-11-03T18:18:36.335Z,0
2022-11-03T18:24:59.429Z,0
2022-11-03T18:31:19.360Z,0
2022-11-03T18:37:42.316Z,0
2022-11-03T18:44:02.377Z,0
2022-11-03T18:50:25.437Z,0
2022-11-03T18:56:45.334Z,0
2022-11-03T19:03:08.406Z,0
2022-11-03T19:09:28.350Z,0
2022-11-03T19:15:51.377Z,0
2022-11-03T19:22:11.317Z,0
2022-11-03T19:28:34.384Z,0
2022-11-03T19:34:54.387Z,0
2022-11-03T19:41:17.311Z,0
2022-11-03T19:47:37.393Z,0
2022-11-03T20:12:22.781Z,0
2022-11-03T20:18:42.348Z,0
2022-11-03T20:25:05.361Z,0
2022-11-03T20:31:25.365Z,0
2022-11-03T20:37:48.353Z,0
2022-11-03T20:44:08.419Z,0
2022-11-03T20:50:31.390Z,0
2022-11-03T20:56:51.358Z,0
2022-11-03T21:03:25.488Z,0
2022-11-03T21:09:34.356Z,0
2022-11-03T21:16:18.557Z,0
2022-11-03T21:22:38.189Z,0
2022-11-03T21:28:40.387Z,0
2022-11-03T21:35:00.363Z,0
2022-11-03T21:41:23.345Z,0
2022-11-03T21:47:43.409Z,0
2022-11-03T21:54:06.324Z,0
2022-11-03T22:00:26.373Z,0
2022-11-03T22:06:49.385Z,0
2022-11-03T22:13:09.769Z,0
2022-11-03T22:19:32.462Z,0
2022-11-03T22:25:52.414Z,0
2022-11-03T22:32:15.468Z,0
2022-11-03T22:38:35.381Z,0
2022-11-03T22:44:58.366Z,0
2022-11-03T22:51:18.397Z,0
2022-11-03T22:57:41.384Z,0
2022-11-03T23:20:39.365Z,0
2022-11-03T23:26:59.324Z,0
2022-11-03T23:33:22.384Z,0
2022-11-03T23:39:42.357Z,0
2022-11-03T23:46:05.361Z,0
2022-11-03T23:52:25.374Z,0
2022-11-03T23:58:48.464Z,0
